Have a Safe July 4th! 

Flight Track Log - Related Links

Times and Time Zones

All times are in EDT time to prevent confusion due to time zone crossing. See the UAL907 flight status page for this flight to view local times or setup timezone preferences in your user account.

Time Position Orientation Groundspeed Altitude Reporting Facility
EDT Latitude Longitude Course Direction KTS MPH feet Rate Location/Type
Sat 06:34:12 AM 48.3740 11.7780 265° West 183 211 1,600  Level FlightAware ADS-B
Sat 06:34:37 AM 48.3710 11.7460 262° West 184 212 2,900 2,850 Climbing FlightAware ADS-B
Sat 06:34:52 AM 48.3710 11.7280 270° West 187 215 3,500 2,100 Climbing FlightAware ADS-B
Sat 06:35:17 AM 48.3690 11.6950 265° West 190 219 4,300 1,950 Climbing FlightAware ADS-B
Sat 06:35:32 AM 48.3690 11.6750 270° West 193 222 4,800 1,400 Climbing FlightAware ADS-B
Sat 06:35:47 AM 48.3750 11.6560 295° West 217 250 5,000 1,000 Climbing FlightAware ADS-B
Sat 06:36:02 AM 48.3840 11.6380 307° West 230 265 5,300 1,950 Climbing FlightAware ADS-B
Sat 06:36:27 AM 48.3990 11.6030 303° West 239 275 6,300 1,600 Climbing FlightAware ADS-B
Sat 06:36:47 AM 48.4140 11.5740 308° West 270 311 6,500 800 Climbing FlightAware ADS-B
Sat 06:37:12 AM 48.4440 11.5500 332° Northwest 313 360 6,900 1,000 Climbing FlightAware ADS-B
Sat 06:37:17 AM 48.4500 11.5460 336° Northwest 328 377 7,000 2,000 Climbing FlightAware ADS-B
Sat 06:37:57 AM 48.5100 11.5050 336° Northwest 358 412 8,400 2,031 Climbing FlightAware ADS-B
Sat 06:38:22 AM 48.5500 11.4770 335° Northwest 371 427 9,200 2,314 Climbing FlightAware ADS-B
Sat 06:39:07 AM 48.6220 11.4270 335° Northwest 391 450 11,100 2,471 Climbing FlightAware ADS-B
Sat 06:39:47 AM 48.6880 11.3780 334° Northwest 394 453 12,700 2,400 Climbing FlightAware ADS-B
Sat 06:40:27 AM 48.7480 11.3270 331° Northwest 404 465 14,300 2,188 Climbing FlightAware ADS-B
Sat 06:41:12 AM 48.8250 11.2490 326° Northwest 416 479 15,800 1,976 Climbing FlightAware ADS-B
Sat 06:41:52 AM 48.8980 11.1950 334° Northwest 431 496 17,100 1,906 Climbing FlightAware ADS-B
Sat 06:42:37 AM 48.9830 11.1510 341° North 442 509 18,500 1,906 Climbing FlightAware ADS-B
Sat 06:43:17 AM 49.0650 11.1100 342° North 456 525 19,800 1,835 Climbing FlightAware ADS-B
Sat 06:44:02 AM 49.1510 11.0660 341° North 455 524 21,100 1,875 Climbing FlightAware ADS-B
Sat 06:44:37 AM 49.2280 11.0280 342° North 458 527 22,300 1,760 Climbing FlightAware ADS-B
Sat 06:45:17 AM 49.3010 10.9900 341° North 471 542 23,300 1,533 Climbing FlightAware ADS-B
Sat 06:46:07 AM 49.4090 10.9250 339° North 475 547 24,600 1,341 Climbing FlightAware ADS-B
Sat 06:46:42 AM 49.4670 10.8690 328° Northwest 473 544 25,200 1,350 Climbing FlightAware ADS-B
Sat 06:47:27 AM 49.5550 10.7740 325° Northwest 475 547 26,400 1,733 Climbing FlightAware ADS-B
Sat 06:48:12 AM 49.6390 10.6830 325° Northwest 475 547 27,800 1,765 Climbing FlightAware ADS-B
Sat 06:48:52 AM 49.7130 10.6040 325° Northwest 474 545 28,900 1,553 Climbing FlightAware ADS-B
Sat 06:49:37 AM 49.7820 10.4970 315° West 468 539 30,000 776 Climbing FlightAware ADS-B
Sat 06:50:17 AM 49.8300 10.3880 304° West 467 537 30,000  Level FlightAware ADS-B
Sat 06:50:57 AM 49.8780 10.2740 303° West 469 540 30,000  Level FlightAware ADS-B
Sat 06:51:42 AM 49.9300 10.1500 303° West 466 536 30,000  Level FlightAware ADS-B
Sat 06:52:22 AM 49.9750 10.0410 303° West 464 534 30,000  Level FlightAware ADS-B
Sat 06:53:07 AM 50.0270 9.9110 302° West 463 533 30,000  Level FlightAware ADS-B
Sat 06:53:47 AM 50.0600 9.7820 292° West 463 533 30,000 600 Level FlightAware ADS-B
Sat 06:54:27 AM 50.0890 9.6590 290° West 460 529 30,800 1,059 Climbing FlightAware ADS-B
Sat 06:55:12 AM 50.1200 9.5180 289° West 465 535 31,500 847 Climbing FlightAware ADS-B
Sat 06:55:52 AM 50.1480 9.3930 289° West 468 539 32,000 375 Climbing FlightAware ADS-B
Sat 06:56:32 AM 50.1760 9.2650 289° West 467 537 32,000  Level FlightAware ADS-B
Sat 06:57:17 AM 50.2080 9.1230 289° West 464 534 32,000  Level FlightAware ADS-B
Sat 06:57:57 AM 50.2350 8.9970 289° West 465 535 32,000  Level FlightAware ADS-B
Sat 06:58:42 AM 50.2670 8.8480 289° West 465 535 32,000  Level FlightAware ADS-B
Sat 06:59:22 AM 50.2930 8.7270 289° West 463 533 32,000  Level FlightAware ADS-B
Sat 07:00:07 AM 50.3250 8.5790 289° West 463 533 32,000  Level FlightAware ADS-B
Sat 07:00:47 AM 50.3520 8.4520 288° West 462 532 32,000  Level FlightAware ADS-B
Sat 07:01:27 AM 50.3770 8.3300 288° West 460 529 32,000  Level FlightAware ADS-B
Sat 07:02:07 AM 50.4040 8.2000 288° West 460 529 32,000  Level FlightAware ADS-B
Sat 07:02:52 AM 50.4300 8.0740 288° West 456 525 32,000  Level FlightAware ADS-B
Sat 07:03:37 AM 50.4570 7.9420 288° West 456 525 32,000  Level FlightAware ADS-B
Sat 07:04:17 AM 50.4860 7.8030 288° West 455 524 32,000  Level FlightAware ADS-B
Sat 07:04:52 AM 50.5090 7.6900 288° West 454 522 32,000  Level FlightAware ADS-B
Sat 07:05:42 AM 50.5400 7.5340 287° West 453 521 32,000  Level FlightAware ADS-B
Sat 07:06:22 AM 50.5650 7.4080 287° West 453 521 32,000  Level FlightAware ADS-B
Sat 07:07:02 AM 50.5910 7.2810 288° West 453 521 32,000  Level FlightAware ADS-B
Sat 07:07:47 AM 50.6180 7.1430 287° West 454 522 32,000  Level FlightAware ADS-B
Sat 07:08:27 AM 50.6430 7.0130 287° West 456 525 32,000  Level FlightAware ADS-B
Sat 07:09:12 AM 50.6700 6.8690 287° West 456 525 32,000  Level FlightAware ADS-B
Sat 07:09:52 AM 50.6930 6.7440 286° West 456 525 32,000  Level FlightAware ADS-B
Sat 07:10:32 AM 50.7160 6.6180 286° West 455 524 32,000  Level FlightAware ADS-B
Sat 07:11:17 AM 50.7430 6.4730 286° West 455 524 32,000  Level FlightAware ADS-B
Sat 07:11:57 AM 50.7640 6.3550 286° West 454 522 32,000  Level FlightAware ADS-B
Sat 07:12:42 AM 50.7920 6.2020 286° West 454 522 32,000  Level FlightAware ADS-B
Sat 07:13:17 AM 50.8120 6.0870 285° West 454 522 32,000  Level FlightAware ADS-B
Sat 07:14:07 AM 50.8410 5.9270 286° West 454 522 32,000  Level FlightAware ADS-B
Sat 07:14:47 AM 50.8610 5.8160 286° West 453 521 32,000  Level FlightAware ADS-B
Sat 07:15:27 AM 50.8850 5.6770 285° West 454 522 32,000  Level FlightAware ADS-B
Sat 07:16:12 AM 50.9100 5.5300 285° West 454 522 32,000  Level FlightAware ADS-B
Sat 07:16:47 AM 50.9300 5.4170 286° West 454 522 32,000  Level FlightAware ADS-B
Sat 07:17:37 AM 50.9560 5.2680 286° West 453 521 32,000  Level FlightAware ADS-B
Sat 07:18:17 AM 50.9800 5.1230 285° West 455 524 32,000  Level FlightAware ADS-B
Sat 07:18:57 AM 51.0040 4.9840 285° West 455 524 32,000  Level FlightAware ADS-B
Sat 07:19:42 AM 51.0280 4.8390 285° West 455 524 32,000  Level FlightAware ADS-B
Sat 07:20:22 AM 51.0490 4.7090 284° West 455 524 32,000  Level FlightAware ADS-B
Sat 07:21:07 AM 51.0730 4.5690 285° West 454 522 32,000 -1,475 Level FlightAware ADS-B
Sat 07:21:23 AM 51.0732 4.5113 285° West 468 539 30,500  Descending FlightAware UK
Sat 07:21:47 AM 51.0940 4.4370 285° West 453 521 32,000 -125 Climbing FlightAware ADS-B
Sat 07:22:11 AM 51.1010 4.3604 285° West 468 539 30,400  Descending FlightAware UK
Sat 07:22:27 AM 51.1150 4.3100 285° West 452 520 32,000 1,574 Climbing FlightAware ADS-B
Sat 07:23:12 AM 51.1380 4.1630 284° West 449 517 32,000  Level FlightAware ADS-B
Sat 07:23:52 AM 51.1580 4.0390 284° West 448 516 32,000 -1,268 Level FlightAware ADS-B
Sat 07:24:23 AM 51.1690 3.9394 284° West 466 536 30,500  Descending FlightAware UK
Sat 07:24:32 AM 51.1790 3.9060 284° West 448 516 32,000 1,667 Climbing FlightAware ADS-B
Sat 07:25:17 AM 51.2010 3.7680 284° West 448 516 32,000  Level FlightAware ADS-B
Sat 07:25:57 AM 51.2210 3.6400 284° West 448 516 32,000 -1,250 Level FlightAware ADS-B
Sat 07:26:29 AM 51.2325 3.5378 284° West 460 529 30,500  Descending FlightAware UK
Sat 07:26:42 AM 51.2410 3.4980 284° West 447 514 32,000  Climbing FlightAware ADS-B
Sat 07:27:35 AM 51.2602 3.3251 284° West 462 532 30,500  Descending FlightAware UK
Sat 07:27:37 AM 51.2640 3.3250 284° West 447 514 32,000  Climbing FlightAware ADS-B
Sat 07:28:05 AM 51.2733 3.2284 284° West 462 532 30,500  Descending FlightAware UK
Sat 07:28:22 AM 51.2830 3.1790 284° West 448 516 32,000  Climbing FlightAware ADS-B
Sat 07:28:47 AM 51.2915 3.0932 284° West 458 527 30,500  Descending FlightAware UK
Sat 07:29:02 AM 51.3020 3.0510 284° West 452 520 32,000 1,636 Climbing FlightAware ADS-B
Sat 07:29:42 AM 51.3340 2.9280 293° West 457 526 32,000 -1,111 Level FlightAware ADS-B
Sat 07:30:23 AM 51.3680 2.7939 293° West 466 536 30,500  Descending FlightAware UK
Sat 07:30:27 AM 51.3720 2.7860 293° West 458 527 32,000  Climbing FlightAware ADS-B
Sat 07:30:47 AM 51.3884 2.7195 293° West 468 539 30,500 -2,368 Descending FlightAware UK
Sat 07:31:05 AM 51.4039 2.6633 294° West 472 543 30,500 4,500 Level FlightAware UK
Sat 07:31:07 AM 51.4060 2.6580 294° West 456 525 32,000  Climbing FlightAware ADS-B
Sat 07:31:23 AM 51.4193 2.6071 294° West 470 541 30,500 -2,250 Descending FlightAware UK
Sat 07:31:47 AM 51.4400 2.5325 294° West 470 541 30,500 3,750 Level FlightAware UK
Sat 07:31:47 AM 51.4400 2.5370 294° West 456 525 32,000  Climbing FlightAware ADS-B
Sat 07:32:11 AM 51.4608 2.4582 294° West 464 534 30,500 -2,143 Descending FlightAware UK
Sat 07:32:29 AM 51.4760 2.4023 294° West 468 539 30,500 4,286 Level FlightAware UK
Sat 07:32:32 AM 51.4780 2.3980 294° West 458 527 32,000  Climbing FlightAware ADS-B
Sat 07:32:58 AM 51.5009 2.3095 294° West 474 545 30,500  Descending FlightAware UK
Sat 07:33:12 AM 51.5110 2.2750 294° West 459 528 32,000  Climbing FlightAware ADS-B
Sat 07:33:28 AM 51.5261 2.2161 294° West 482 555 30,500 -2,647 Descending FlightAware UK
Sat 07:33:46 AM 51.5408 2.1599 293° West 480 552 30,500 3,103 Level FlightAware UK
Sat 07:33:57 AM 51.5460 2.1430 293° West 457 526 32,000 -167 Climbing FlightAware ADS-B
Sat 07:34:22 AM 51.5699 2.0478 293° West 476 548 30,400  Descending FlightAware UK
Sat 07:34:39 AM 51.5858 1.9868 293° West 455 524 32,000 2,824 Climbing FlightAware ADS-B
Sat 07:34:56 AM 51.5947 1.9320 285° West 447 514 32,000  Level FlightAware ADS-B
Sat 07:35:06 AM 51.5966 1.8979 275° West 445 512 32,000 -3,000 Level FlightAware ADS-B
Sat 07:35:28 AM 51.5943 1.8363 275° West 474 545 30,400  Descending FlightAware UK
Sat 07:35:38 AM 51.5979 1.7928 275° West 443 510 32,000  Climbing FlightAware ADS-B
Sat 07:36:04 AM 51.5955 1.7181 275° West 474 545 30,400  Descending FlightAware UK
Sat 07:36:11 AM 51.5988 1.6846 275° West 442 509 32,000 200 Climbing FlightAware ADS-B
Sat 07:36:34 AM 51.5962 1.6206 275° West 472 543 30,500  Descending FlightAware UK
Sat 07:36:42 AM 51.6000 1.5980 275° West 442 509 32,000  Climbing FlightAware ADS-B
Sat 07:36:58 AM 51.5966 1.5423 275° West 474 545 30,500  Descending FlightAware UK
Sat 07:37:08 AM 51.5999 1.4974 275° West 441 507 32,000  Climbing FlightAware ADS-B
Sat 07:37:28 AM 51.5965 1.4443 275° West 470 541 30,500  Descending FlightAware UK
Sat 07:38:00 AM 51.6036 1.3302 275° West 443 510 32,000  Climbing FlightAware ADS-B
Sat 07:38:16 AM 51.6031 1.2878 275° West 468 539 30,500  Descending FlightAware UK
Sat 07:38:35 AM 51.6094 1.2138 275° West 442 509 32,000  Climbing FlightAware ADS-B
Sat 07:38:52 AM 51.6088 1.1706 275° West 470 541 30,500  Descending FlightAware UK
Sat 07:39:05 AM 51.6141 1.1153 275° West 444 511 32,000 1,915 Climbing FlightAware ADS-B
Sat 07:39:39 AM 51.6184 1.0056 274° West 445 512 32,000 -1,698 Level FlightAware ADS-B
Sat 07:39:58 AM 51.6173 0.9544 274° West 472 543 30,500  Descending FlightAware UK
Sat 07:40:11 AM 51.6220 0.9007 274° West 446 513 32,000  Climbing FlightAware ADS-B
Sat 07:40:34 AM 51.6207 0.8356 274° West 472 543 30,500  Descending FlightAware UK
Sat 07:40:41 AM 51.6248 0.8002 274° West 446 513 32,000  Climbing FlightAware ADS-B
Sat 07:40:58 AM 51.6225 0.7562 274° West 478 550 30,500  Descending FlightAware UK
Sat 07:41:12 AM 51.6271 0.6956 274° West 447 514 32,000 2,000 Climbing FlightAware ADS-B
Sat 07:41:43 AM 51.6294 0.5947 272° West 446 513 32,000  Level FlightAware ADS-B
Sat 07:42:13 AM 51.6314 0.4944 272° West 446 513 32,000  Level FlightAware ADS-B
Sat 07:42:44 AM 51.6333 0.3919 272° West 445 512 32,000  Level FlightAware ADS-B
Sat 07:43:20 AM 51.6345 0.2753 271° West 443 510 32,000 -1,636 Level FlightAware ADS-B
Sat 07:43:39 AM 51.6312 0.2213 271° West 470 541 30,500  Descending FlightAware UK
Sat 07:43:50 AM 51.6356 0.1756 271° West 442 509 32,000 2,143 Climbing FlightAware ADS-B
Sat 07:44:21 AM 51.6356 0.0728 270° West 441 507 32,000  Level FlightAware ADS-B
Sat 07:44:52 AM 51.6354 -0.0256 270° West 438 504 32,000 -1,667 Level FlightAware ADS-B
Sat 07:45:15 AM 51.6309 -0.0906 270° West 464 534 30,500  Descending FlightAware UK
Sat 07:45:22 AM 51.6357 -0.1236 270° West 437 503 32,000  Climbing FlightAware ADS-B
Sat 07:45:39 AM 51.6315 -0.1684 270° West 466 536 30,500  Descending FlightAware UK
Sat 07:45:52 AM 51.6359 -0.2217 270° West 438 504 32,000 2,045 Climbing FlightAware ADS-B
Sat 07:46:23 AM 51.6351 -0.3216 269° West 441 507 32,000 -1,915 Level FlightAware ADS-B
Sat 07:46:39 AM 51.6294 -0.3634 269° West 464 534 30,500  Descending FlightAware UK
Sat 07:46:54 AM 51.6331 -0.4239 269° West 443 510 32,000 1,957 Climbing FlightAware ADS-B
Sat 07:47:25 AM 51.6308 -0.5246 268° West 445 512 32,000  Level FlightAware ADS-B
Sat 07:47:55 AM 51.6273 -0.6252 267° West 448 516 32,000  Level FlightAware ADS-B
Sat 07:48:25 AM 51.6228 -0.7263 266° West 450 518 32,000  Level FlightAware ADS-B
Sat 07:48:56 AM 51.6181 -0.8292 266° West 453 521 32,000  Level FlightAware ADS-B
Sat 07:49:18 AM 51.6143 -0.9036 265° West 454 522 32,000  Level FlightAware ADS-B
Sat 07:49:26 AM 51.6138 -0.9283 268° West 451 519 32,000  Level FlightAware ADS-B
Sat 07:49:56 AM 51.6198 -1.0295 275° West 449 517 32,000  Level FlightAware ADS-B
Sat 07:50:27 AM 51.6261 -1.1327 276° West 452 520 32,000  Level FlightAware ADS-B
Sat 07:50:57 AM 51.6325 -1.2337 276° West 454 522 32,000  Level FlightAware ADS-B
Sat 07:51:28 AM 51.6388 -1.3368 276° West 458 527 32,000 -1,915 Level FlightAware ADS-B
Sat 07:51:44 AM 51.6354 -1.3807 276° West 468 539 30,500  Descending FlightAware UK
Sat 07:51:59 AM 51.6453 -1.4411 276° West 459 528 32,000  Climbing FlightAware ADS-B
Sat 07:52:14 AM 51.6414 -1.4827 276° West 470 541 30,500  Descending FlightAware UK
Sat 07:52:30 AM 51.6520 -1.5477 276° West 460 529 32,000  Climbing FlightAware ADS-B
Sat 07:52:50 AM 51.6490 -1.6052 276° West 470 541 30,500  Descending FlightAware UK
Sat 07:53:01 AM 51.6587 -1.6540 276° West 462 532 32,000  Climbing FlightAware ADS-B
Sat 07:53:20 AM 51.6553 -1.7070 276° West 472 543 30,500  Descending FlightAware UK
Sat 07:53:32 AM 51.6654 -1.7570 276° West 462 532 32,000  Climbing FlightAware ADS-B
Sat 07:53:56 AM 51.6630 -1.8295 276° West 474 545 30,500  Descending FlightAware UK
Sat 07:54:05 AM 51.6730 -1.8700 276° West 464 534 32,000  Climbing FlightAware ADS-B
Sat 07:54:20 AM 51.6683 -1.9118 276° West 476 548 30,500 -2,727 Descending FlightAware UK
Sat 07:54:38 AM 51.6723 -1.9736 276° West 476 548 30,500 3,913 Level FlightAware UK
Sat 07:54:43 AM 51.6814 -1.9994 276° West 463 533 32,000 2,571 Climbing FlightAware ADS-B
Sat 07:55:13 AM 51.6883 -2.1055 276° West 463 533 32,000 -1,837 Level FlightAware ADS-B
Sat 07:55:32 AM 51.6838 -2.1588 276° West 474 545 30,500  Descending FlightAware UK
Sat 07:55:50 AM 51.6965 -2.2304 276° West 463 533 32,000  Climbing FlightAware ADS-B
Sat 07:56:13 AM 51.6929 -2.3017 276° West 470 541 30,500  Descending FlightAware UK
Sat 07:56:21 AM 51.7028 -2.3357 276° West 462 532 32,000  Climbing FlightAware ADS-B
Sat 07:56:37 AM 51.6960 -2.3832 276° West 472 543 30,500  Descending FlightAware UK
Sat 07:56:52 AM 51.7068 -2.4440 276° West 463 533 32,000 1,957 Climbing FlightAware ADS-B
Sat 07:57:23 AM 51.7106 -2.5497 273° West 462 532 32,000 -1,765 Level FlightAware ADS-B
Sat 07:57:43 AM 51.7035 -2.6097 273° West 472 543 30,500  Descending FlightAware UK
Sat 07:57:54 AM 51.7144 -2.6562 273° West 460 529 32,000 2,093 Climbing FlightAware ADS-B
Sat 07:58:26 AM 51.7183 -2.7644 273° West 459 528 32,000 -1,475 Level FlightAware ADS-B
Sat 07:58:55 AM 51.7120 -2.8546 273° West 468 539 30,500  Descending FlightAware UK
Sat 07:59:07 AM 51.7234 -2.9023 273° West 458 527 32,000  Climbing FlightAware ADS-B
Sat 07:59:25 AM 51.7155 -2.9565 273° West 468 539 30,500  Descending FlightAware UK
Sat 08:00:02 AM 51.7300 -3.0770 273° West 456 525 32,000  Climbing FlightAware ADS-B
Sat 08:00:19 AM 51.7216 -3.1391 273° West 466 536 30,500  Descending FlightAware UK
Sat 08:00:47 AM 51.7350 -3.2290 273° West 455 524 32,000  Climbing FlightAware ADS-B
Sat 08:01:19 AM 51.7282 -3.3419 273° West 464 534 30,500  Descending FlightAware UK
Sat 08:01:27 AM 51.7400 -3.3580 273° West 455 524 32,000  Climbing FlightAware ADS-B
Sat 08:02:01 AM 51.7327 -3.4836 273° West 466 536 30,500  Descending FlightAware UK
Sat 08:02:12 AM 51.7450 -3.5200 273° West 455 524 32,000  Climbing FlightAware ADS-B
Sat 08:02:37 AM 51.7365 -3.6058 273° West 464 534 30,500  Descending FlightAware UK
Sat 08:02:52 AM 51.7490 -3.6490 273° West 456 525 32,000  Climbing FlightAware ADS-B
Sat 08:03:25 AM 51.7407 -3.7690 273° West 466 536 30,500  Descending FlightAware UK
Sat 08:03:32 AM 51.7510 -3.7920 273° West 461 531 32,000  Climbing FlightAware ADS-B
Sat 08:03:55 AM 51.7373 -3.8723 273° West 466 536 30,500  Descending FlightAware UK
Sat 08:04:17 AM 51.7480 -3.9380 273° West 461 531 32,000  Climbing FlightAware ADS-B
Sat 08:04:37 AM 51.7335 -4.0168 273° West 468 539 30,500 -2,368 Descending FlightAware UK
Sat 08:04:55 AM 51.7323 -4.0786 268° West 468 539 30,500 4,500 Level FlightAware UK
Sat 08:04:57 AM 51.7450 -4.0750 268° West 461 531 32,000  Climbing FlightAware ADS-B
Sat 08:05:30 AM 51.7299 -4.2014 268° West 468 539 30,500  Descending FlightAware UK
Sat 08:05:37 AM 51.7420 -4.2250 268° West 460 529 32,000  Climbing FlightAware ADS-B
Sat 08:06:12 AM 51.7273 -4.3455 268° West 466 536 30,500  Descending FlightAware UK
Sat 08:06:22 AM 51.7390 -4.3750 268° West 461 531 32,000  Climbing FlightAware ADS-B
Sat 08:06:42 AM 51.7252 -4.4484 268° West 466 536 30,500 -2,368 Descending FlightAware UK
Sat 08:07:00 AM 51.7239 -4.5103 268° West 466 536 30,500 4,500 Level FlightAware UK
Sat 08:07:02 AM 51.7370 -4.5140 268° West 462 532 32,000  Climbing FlightAware ADS-B
Sat 08:07:24 AM 51.7220 -4.5928 268° West 466 536 30,500 -2,250 Descending FlightAware UK
Sat 08:07:42 AM 51.7206 -4.6547 268° West 468 539 30,500 3,913 Level FlightAware UK
Sat 08:07:47 AM 51.7330 -4.6710 268° West 463 533 32,000  Climbing FlightAware ADS-B
Sat 08:08:06 AM 51.7184 -4.7374 268° West 468 539 30,500 -2,432 Descending FlightAware UK
Sat 08:08:24 AM 51.7168 -4.7994 268° West 468 539 30,500 4,286 Level FlightAware UK
Sat 08:08:27 AM 51.7300 -4.8090 268° West 462 532 32,000  Climbing FlightAware ADS-B
Sat 08:08:42 AM 51.7153 -4.8614 268° West 468 539 30,500 -2,308 Descending FlightAware UK
Sat 08:09:06 AM 51.7133 -4.9434 268° West 468 539 30,500 3,000 Level FlightAware UK
Sat 08:09:12 AM 51.7260 -4.9610 268° West 462 532 32,000  Climbing FlightAware ADS-B
Sat 08:09:30 AM 51.7112 -5.0259 268° West 466 536 30,500 -2,500 Descending FlightAware UK
Sat 08:09:48 AM 51.7096 -5.0878 268° West 466 536 30,500 4,091 Level FlightAware UK
Sat 08:09:52 AM 51.7230 -5.1020 268° West 463 533 32,000  Climbing FlightAware ADS-B
Sat 08:10:12 AM 51.7076 -5.1704 268° West 466 536 30,500 -2,368 Descending FlightAware UK
Sat 08:10:30 AM 51.7060 -5.2324 268° West 466 536 30,500 4,500 Level FlightAware UK
Sat 08:10:32 AM 51.7190 -5.2400 268° West 462 532 32,000  Climbing FlightAware ADS-B
Sat 08:10:54 AM 51.7035 -5.3150 268° West 464 534 30,500 -2,250 Descending FlightAware UK
Sat 08:11:12 AM 51.7016 -5.3769 267° West 464 534 30,500 3,913 Level FlightAware UK
Sat 08:11:17 AM 51.7150 -5.3910 267° West 462 532 32,000  Climbing FlightAware ADS-B
Sat 08:11:36 AM 51.6991 -5.4595 267° West 464 534 30,500 -2,432 Descending FlightAware UK
Sat 08:11:54 AM 51.6971 -5.5214 267° West 466 536 30,500 4,286 Level FlightAware UK
Sat 08:11:57 AM 51.7110 -5.5280 267° West 462 532 32,000  Climbing FlightAware ADS-B
Sat 08:12:12 AM 51.6951 -5.5833 267° West 466 536 30,500 -2,727 Descending FlightAware UK
Sat 08:12:30 AM 51.6931 -5.6452 267° West 466 536 30,500 3,600 Level FlightAware UK
Sat 08:12:37 AM 51.7060 -5.6660 267° West 463 533 32,000  Climbing FlightAware ADS-B
Sat 08:12:54 AM 51.6905 -5.7277 267° West 464 534 30,500 -2,571 Descending FlightAware UK
Sat 08:13:12 AM 51.6883 -5.7897 267° West 466 536 30,500 3,214 Level FlightAware UK
Sat 08:13:22 AM 51.7010 -5.8170 267° West 462 532 32,000  Climbing FlightAware ADS-B
Sat 08:13:42 AM 51.6847 -5.8929 267° West 466 536 30,500 -2,368 Descending FlightAware UK
Sat 08:14:00 AM 51.6827 -5.9548 267° West 468 539 30,500 4,500 Level FlightAware UK
Sat 08:14:02 AM 51.6960 -5.9510 267° West 463 533 32,000  Climbing FlightAware ADS-B
Sat 08:14:18 AM 51.6805 -6.0160 267° West 468 539 30,500 -2,647 Descending FlightAware UK
Sat 08:14:36 AM 51.6782 -6.0779 267° West 470 541 30,500 3,103 Level FlightAware UK
Sat 08:14:47 AM 51.6900 -6.1140 267° West 463 533 32,000  Climbing FlightAware ADS-B
Sat 08:15:06 AM 51.6743 -6.1811 267° West 468 539 30,500 -2,432 Descending FlightAware UK
Sat 08:15:24 AM 51.6720 -6.2430 267° West 466 536 30,500 4,286 Level FlightAware UK
Sat 08:15:27 AM 51.6850 -6.2490 267° West 464 534 32,000  Climbing FlightAware ADS-B
Sat 08:15:42 AM 51.6696 -6.3050 267° West 466 536 30,500 -2,727 Descending FlightAware UK
Sat 08:16:00 AM 51.6672 -6.3670 266° West 464 534 30,500 3,600 Level FlightAware UK
Sat 08:16:07 AM 51.6800 -6.3880 266° West 464 534 32,000  Climbing FlightAware ADS-B
Sat 08:16:24 AM 51.6638 -6.4497 266° West 466 536 30,500 -2,571 Descending FlightAware UK
Sat 08:16:42 AM 51.6612 -6.5117 266° West 466 536 30,500 3,214 Level FlightAware UK
Sat 08:16:52 AM 51.6730 -6.5400 266° West 466 536 32,000  Climbing FlightAware ADS-B
Sat 08:17:12 AM 51.6569 -6.6152 266° West 466 536 30,500 -2,368 Descending FlightAware UK
Sat 08:17:30 AM 51.6542 -6.6774 266° West 468 539 30,500 4,500 Level FlightAware UK
Sat 08:17:32 AM 51.6680 -6.6800 266° West 466 536 32,000  Climbing FlightAware ADS-B
Sat 08:17:48 AM 51.6515 -6.7396 266° West 468 539 30,500 -2,647 Descending FlightAware UK
Sat 08:18:06 AM 51.6491 -6.8019 266° West 468 539 30,500 3,750 Level FlightAware UK
Sat 08:18:12 AM 51.6620 -6.8180 266° West 466 536 32,000  Climbing FlightAware ADS-B
Sat 08:18:30 AM 51.6455 -6.8848 266° West 470 541 30,500 -2,500 Descending FlightAware UK
Sat 08:18:48 AM 51.6427 -6.9470 266° West 468 539 30,500 3,333 Level FlightAware UK
Sat 08:18:57 AM 51.6540 -6.9770 266° West 465 535 32,000  Climbing FlightAware ADS-B
Sat 08:19:12 AM 51.6391 -7.0298 266° West 468 539 30,500 -2,727 Descending FlightAware UK
Sat 08:19:30 AM 51.6363 -7.0917 266° West 466 536 30,500 3,600 Level FlightAware UK
Sat 08:19:37 AM 51.6480 -7.1120 266° West 465 535 32,000  Climbing FlightAware ADS-B
Sat 08:19:54 AM 51.6327 -7.1737 266° West 466 536 30,500 -2,571 Descending FlightAware UK
Sat 08:20:12 AM 51.6299 -7.2357 266° West 468 539 30,500 3,214 Level FlightAware UK
Sat 08:20:22 AM 51.6410 -7.2710 266° West 465 535 32,000  Climbing FlightAware ADS-B
Sat 08:20:42 AM 51.6253 -7.3390 266° West 466 536 30,500 -2,368 Descending FlightAware UK
Sat 08:21:00 AM 51.6226 -7.4009 266° West 468 539 30,500 4,500 Level FlightAware UK
Sat 08:21:02 AM 51.6340 -7.4020 266° West 466 536 32,000  Climbing FlightAware ADS-B
Sat 08:21:18 AM 51.6195 -7.4629 266° West 470 541 30,500 -2,647 Descending FlightAware UK
Sat 08:21:36 AM 51.6164 -7.5250 265° West 470 541 30,500 4,737 Level FlightAware UK
Sat 08:21:37 AM 51.6290 -7.5220 265° West 466 536 32,000  Climbing FlightAware ADS-B
Sat 08:21:54 AM 51.6133 -7.5870 265° West 470 541 30,500 -2,571 Descending FlightAware UK
Sat 08:22:12 AM 51.6102 -7.6490 265° West 470 541 30,500  Level FlightAware UK
Sat 08:22:30 AM 51.6070 -7.7109 265° West 470 541 30,500  Level FlightAware UK
Sat 08:22:48 AM 51.6039 -7.7728 265° West 466 536 30,500  Level FlightAware UK
Sat 08:23:06 AM 51.6006 -7.8346 265° West 466 536 30,500 4,737 Level FlightAware UK
Sat 08:23:07 AM 51.6120 -7.8350 265° West 464 534 32,000  Climbing FlightAware ADS-B
Sat 08:23:30 AM 51.5964 -7.9169 265° West 466 536 30,500 -2,195 Descending FlightAware UK
Sat 08:23:48 AM 51.5931 -7.9787 265° West 466 536 30,500  Level FlightAware UK
Sat 08:24:06 AM 51.5898 -8.0404 265° West 468 539 30,500 3,750 Level FlightAware UK
Sat 08:24:12 AM 51.6000 -8.0550 265° West 465 535 32,000  Climbing FlightAware ADS-B
Sat 08:24:30 AM 51.5854 -8.1229 265° West 466 536 30,500 -2,500 Descending FlightAware UK
Sat 08:24:48 AM 51.5820 -8.1848 265° West 466 536 30,500 3,333 Level FlightAware UK
Sat 08:24:57 AM 51.5920 -8.2100 265° West 465 535 32,000  Climbing FlightAware ADS-B
Sat 08:25:12 AM 51.5773 -8.2673 265° West 466 536 30,500 -2,727 Descending FlightAware UK
Sat 08:25:30 AM 51.5738 -8.3286 265° West 466 536 30,500 3,000 Level FlightAware UK
Sat 08:25:42 AM 51.5830 -8.3570 265° West 466 536 32,000  Climbing FlightAware ADS-B
Sat 08:26:00 AM 51.5670 -8.4318 265° West 466 536 30,500 -2,500 Descending FlightAware UK
Sat 08:26:18 AM 51.5632 -8.4938 264° West 466 536 30,500 4,091 Level FlightAware UK
Sat 08:26:22 AM 51.5750 -8.4920 264° West 466 536 32,000  Climbing FlightAware ADS-B
Sat 08:26:42 AM 51.5582 -8.5765 264° West 466 536 30,500 -2,368 Descending FlightAware UK
Sat 08:27:00 AM 51.5544 -8.6386 264° West 466 536 30,500 3,600 Level FlightAware UK
Sat 08:27:07 AM 51.5650 -8.6450 264° West 468 539 32,000  Climbing FlightAware ADS-B
Sat 08:27:24 AM 51.5495 -8.7214 264° West 468 539 30,500 -2,571 Descending FlightAware UK
Sat 08:27:42 AM 51.5458 -8.7838 265° West 472 543 30,500 3,913 Level FlightAware UK
Sat 08:27:47 AM 51.5560 -8.7880 265° West 470 541 32,000  Climbing FlightAware ADS-B
Sat 08:28:06 AM 51.5407 -8.8669 265° West 472 543 30,500 -2,432 Descending FlightAware UK
Sat 08:28:24 AM 51.5369 -8.9293 264° West 470 541 30,500 4,286 Level FlightAware UK
Sat 08:28:27 AM 51.5480 -8.9270 264° West 470 541 32,000  Climbing FlightAware ADS-B
Sat 08:28:42 AM 51.5333 -8.9917 264° West 470 541 30,500  Descending FlightAware UK
Sat 08:29:12 AM 51.5380 -9.0820 264° West 469 540 32,000 1,286 Climbing FlightAware ADS-B
Sat 08:29:52 AM 51.5290 -9.2230 264° West 468 539 32,000  Level FlightAware ADS-B
Sat 08:30:37 AM 51.5180 -9.3770 264° West 468 539 32,000  Level FlightAware ADS-B
Sat 08:31:17 AM 51.5090 -9.5130 264° West 468 539 32,000  Level FlightAware ADS-B
Sat 08:32:02 AM 51.4990 -9.6680 264° West 467 537 32,000  Level FlightAware ADS-B
Sat 08:32:42 AM 51.4890 -9.8090 264° West 468 539 32,000  Level FlightAware ADS-B
Sat 08:33:22 AM 51.4790 -9.9450 263° West 468 539 32,000  Level FlightAware ADS-B
Sat 08:34:07 AM 51.4680 -10.0990 264° West 468 539 32,000  Level FlightAware ADS-B
Sat 08:34:47 AM 51.4580 -10.2370 263° West 467 537 32,000  Level FlightAware ADS-B
Sat 08:35:32 AM 51.4460 -10.3940 263° West 467 537 32,000  Level FlightAware ADS-B
Sat 08:36:12 AM 51.4350 -10.5300 263° West 466 536 32,000  Level FlightAware ADS-B
Sat 08:36:52 AM 51.4250 -10.6690 263° West 467 537 32,000  Level FlightAware ADS-B
Sat 08:37:37 AM 51.4120 -10.8320 263° West 468 539 32,000  Level FlightAware ADS-B
Sat 08:38:17 AM 51.4010 -10.9620 262° West 468 539 32,000  Level FlightAware ADS-B
Sat 08:38:57 AM 51.3910 -11.0860 263° West 468 539 32,000  Level FlightAware ADS-B
Sat 08:39:37 AM 51.3800 -11.2030 261° West 468 539 32,000  Level FlightAware ADS-B
Sat 08:40:22 AM 51.3670 -11.3830 263° West 468 539 32,000  Level FlightAware ADS-B
Sat 08:41:02 AM 51.3550 -11.5210 262° West 468 539 32,000  Level FlightAware ADS-B
Sat 08:41:42 AM 51.3440 -11.6380 261° West 468 539 32,000  Level FlightAware ADS-B
Sat 08:42:32 AM 51.3320 -11.7830 263° West 468 539 32,000  Level FlightAware ADS-B
Sat 08:43:12 AM 51.3210 -11.9000 261° West 468 539 32,000  Level FlightAware ADS-B
Sat 08:43:52 AM 51.3110 -12.0170 262° West 468 539 32,000  Level FlightAware ADS-B
Sat 08:44:32 AM 51.3010 -12.1330 262° West 468 539 32,000  Level FlightAware ADS-B
Sat 08:45:12 AM 51.2910 -12.2500 262° West 468 539 32,000  Level FlightAware ADS-B
Sat 08:45:52 AM 51.2800 -12.3670 261° West 468 539 32,000  Level FlightAware ADS-B
Sat 08:46:42 AM 51.2670 -12.5120 262° West 468 539 32,000  Level FlightAware ADS-B
Sat 08:47:22 AM 51.2570 -12.6290 262° West 468 539 32,000  Level FlightAware ADS-B
Sat 08:48:02 AM 51.2470 -12.7450 262° West 468 539 32,000  Level FlightAware ADS-B
Sat 08:48:42 AM 51.2370 -12.8620 262° West 468 539 32,000  Level FlightAware ADS-B
Sat 08:49:32 AM 51.2240 -13.0070 262° West 468 539 32,000  Level FlightAware ADS-B
Sat 08:50:12 AM 51.2140 -13.1230 262° West 468 539 32,000  Level FlightAware ADS-B
Sat 08:52:00 AM 51.2862 -13.4348 290° West  Level Estimated
Sat 08:53:00 AM 51.3259 -13.6084 290° West  Level Estimated
Sat 08:54:00 AM 51.3653 -13.7823 290° West  Level Estimated
Sat 08:55:00 AM 51.4045 -13.9566 290° West  Level Estimated
Sat 08:56:00 AM 51.4435 -14.1311 290° West  Level Estimated
Sat 08:57:00 AM 51.4822 -14.3059 290° West  Level Estimated
Sat 08:58:00 AM 51.5206 -14.4810 289° West  Level Estimated
Sat 08:59:00 AM 51.5588 -14.6564 289° West  Level Estimated
Sat 09:00:00 AM 51.5967 -14.8321 289° West  Level Estimated
Sat 09:01:00 AM 51.6343 -15.0081 289° West  Level Estimated
Sat 09:02:00 AM 51.6717 -15.1844 289° West  Level Estimated
Sat 09:03:00 AM 51.7088 -15.3610 289° West  Level Estimated
Sat 09:04:00 AM 51.7457 -15.5379 289° West  Level Estimated
Sat 09:05:00 AM 51.7823 -15.7150 289° West  Level Estimated
Sat 09:06:00 AM 51.8186 -15.8925 288° West  Level Estimated
Sat 09:07:00 AM 51.8600 -16.0968 288° West  Level Estimated
Sat 09:08:00 AM 51.9011 -16.3014 288° West  Level Estimated
Sat 09:09:00 AM 51.9417 -16.5065 288° West  Level Estimated
Sat 09:10:00 AM 51.9821 -16.7118 288° West  Level Estimated
Sat 09:11:00 AM 52.0221 -16.9176 288° West  Level Estimated
Sat 09:12:00 AM 52.0617 -17.1238 287° West  Level Estimated
Sat 09:13:00 AM 52.1009 -17.3302 287° West  Level Estimated
Sat 09:14:00 AM 52.1399 -17.5371 287° West  Level Estimated
Sat 09:15:00 AM 52.1784 -17.7443 287° West  Level Estimated
Sat 09:16:00 AM 52.2166 -17.9519 287° West  Level Estimated
Sat 09:17:00 AM 52.2544 -18.1598 287° West  Level Estimated
Sat 09:18:00 AM 52.2918 -18.3681 286° West  Level Estimated
Sat 09:19:00 AM 52.3289 -18.5768 286° West  Level Estimated
Sat 09:20:00 AM 52.3656 -18.7858 286° West  Level Estimated
Sat 09:21:00 AM 52.4020 -18.9951 286° West  Level Estimated
Sat 09:22:00 AM 52.4379 -19.2048 286° West  Level Estimated
Sat 09:23:00 AM 52.4735 -19.4148 286° West  Level Estimated
Sat 09:24:00 AM 52.5088 -19.6252 285° West  Level Estimated
Sat 09:25:00 AM 52.5436 -19.8358 285° West  Level Estimated
Sat 09:26:00 AM 52.5781 -20.0469 285° West  Level Estimated
Sat 09:27:00 AM 52.6122 -20.2582 285° West  Level Estimated
Sat 09:28:00 AM 52.6459 -20.4699 285° West  Level Estimated
Sat 09:29:00 AM 52.6793 -20.6819 285° West  Level Estimated
Sat 09:30:00 AM 52.7122 -20.8942 284° West  Level Estimated
Sat 09:31:00 AM 52.7448 -21.1069 284° West  Level Estimated
Sat 09:32:00 AM 52.7770 -21.3198 284° West  Level Estimated
Sat 09:33:00 AM 52.8089 -21.5331 284° West  Level Estimated
Sat 09:34:00 AM 52.8403 -21.7467 284° West  Level Estimated
Sat 09:35:00 AM 52.8714 -21.9606 284° West  Level Estimated
Sat 09:36:00 AM 52.9021 -22.1748 283° West  Level Estimated
Sat 09:37:00 AM 52.9323 -22.3893 283° West  Level Estimated
Sat 09:37:00 AM 50.0000 -20.0000 274° West 491 565 32,000  Level ETMS Enhanced Traffic Management System
Sat 09:38:00 AM 52.9622 -22.6041 283° West  Level Estimated
Sat 09:39:00 AM 52.9918 -22.8192 283° West  Level Estimated
Sat 09:40:00 AM 53.0209 -23.0346 283° West  Level Estimated
Sat 09:41:00 AM 53.0496 -23.2503 283° West  Level Estimated
Sat 09:42:00 AM 53.0780 -23.4662 282° West  Level Estimated
Sat 09:43:00 AM 50.1051 -24.2542 271° West 491 565 32,000  Level FlightAware Transoceanic
Sat 09:44:00 AM 50.1063 -24.4673 270° West 491 565 32,000  Level FlightAware Transoceanic
Sat 09:45:00 AM 50.1071 -24.6804 270° West 491 565 32,000  Level FlightAware Transoceanic
Sat 09:46:00 AM 50.1075 -24.8935 270° West 491 565 32,000  Level FlightAware Transoceanic
Sat 09:47:00 AM 50.1075 -25.1065 270° West 491 565 32,000  Level FlightAware Transoceanic
Sat 09:48:00 AM 50.1071 -25.3196 270° West 491 565 32,000  Level FlightAware Transoceanic
Sat 09:49:00 AM 50.1063 -25.5327 270° West 491 565 32,000  Level FlightAware Transoceanic
Sat 09:50:00 AM 50.1051 -25.7458 269° West 491 565 32,000  Level FlightAware Transoceanic
Sat 09:51:00 AM 50.1036 -25.9588 269° West 491 565 32,000  Level FlightAware Transoceanic
Sat 09:52:00 AM 50.1016 -26.1719 269° West 491 565 32,000  Level FlightAware Transoceanic
Sat 09:53:00 AM 50.0993 -26.3849 269° West 491 565 32,000  Level FlightAware Transoceanic
Sat 09:54:00 AM 50.0966 -26.5979 269° West 491 565 32,000  Level FlightAware Transoceanic
Sat 09:55:00 AM 50.0934 -26.8109 269° West 491 565 32,000  Level FlightAware Transoceanic
Sat 09:56:00 AM 50.0899 -27.0238 268° West 491 565 32,000  Level FlightAware Transoceanic
Sat 09:57:00 AM 50.0860 -27.2367 268° West 491 565 32,000  Level FlightAware Transoceanic
Sat 09:58:00 AM 50.0817 -27.4496 268° West 491 565 32,000  Level FlightAware Transoceanic
Sat 09:59:00 AM 50.0771 -27.6624 268° West 491 565 32,000  Level FlightAware Transoceanic
Sat 10:00:00 AM 50.0720 -27.8752 268° West 491 565 32,000  Level FlightAware Transoceanic
Sat 10:01:00 AM 50.0666 -28.0880 268° West 491 565 32,000  Level FlightAware Transoceanic
Sat 10:02:00 AM 50.0607 -28.3007 267° West 491 565 32,000  Level FlightAware Transoceanic
Sat 10:03:00 AM 50.0545 -28.5133 267° West 491 565 32,000  Level FlightAware Transoceanic
Sat 10:04:00 AM 50.0479 -28.7259 267° West 491 565 32,000  Level FlightAware Transoceanic
Sat 10:05:00 AM 50.0409 -28.9384 267° West 491 565 32,000  Level FlightAware Transoceanic
Sat 10:06:00 AM 50.0335 -29.1509 267° West 491 565 32,000  Level FlightAware Transoceanic
Sat 10:07:00 AM 50.0257 -29.3633 267° West 491 565 32,000  Level FlightAware Transoceanic
Sat 10:08:00 AM 50.0175 -29.5756 266° West 491 565 32,000  Level FlightAware Transoceanic
Sat 10:09:00 AM 50.0089 -29.7878 266° West 491 565 32,000  Level FlightAware Transoceanic
Sat 10:10:00 AM 50.0003 -29.9941 266° West  Level FlightAware Approximate
Sat 10:11:00 AM 49.9910 -30.2002 266° West  Level FlightAware Approximate
Sat 10:12:00 AM 49.9708 -30.1786 256° West  Level FlightAware Approximate
Sat 10:13:00 AM 49.9394 -30.3685 256° West  Level FlightAware Approximate
Sat 10:14:00 AM 49.9077 -30.5582 256° West  Level FlightAware Approximate
Sat 10:15:00 AM 49.8758 -30.7476 255° West  Level FlightAware Approximate
Sat 10:16:00 AM 49.8434 -30.9367 255° West  Level FlightAware Approximate
Sat 10:17:00 AM 49.8108 -31.1256 255° West  Level FlightAware Approximate
Sat 10:18:00 AM 49.7783 -31.3144 256° West  Level FlightAware Approximate
Sat 10:19:00 AM 49.7477 -31.5038 256° West  Level FlightAware Approximate
Sat 10:20:00 AM 49.7167 -31.6930 256° West  Level FlightAware Approximate
Sat 10:21:00 AM 49.6855 -31.8820 256° West  Level FlightAware Approximate
Sat 10:22:00 AM 49.6539 -32.0707 256° West  Level FlightAware Approximate
Sat 10:23:00 AM 49.6220 -32.2591 255° West  Level FlightAware Approximate
Sat 10:24:00 AM 49.5898 -32.4473 255° West  Level FlightAware Approximate
Sat 10:25:00 AM 49.5574 -32.6353 255° West  Level FlightAware Approximate
Sat 10:26:00 AM 49.5246 -32.8230 255° West  Level FlightAware Approximate
Sat 10:27:00 AM 49.4915 -33.0105 255° West  Level FlightAware Approximate
Sat 10:28:00 AM 49.4581 -33.1977 255° West  Level FlightAware Approximate
Sat 10:29:00 AM 49.4244 -33.3846 255° West  Level FlightAware Approximate
Sat 10:30:00 AM 49.3904 -33.5713 254° West  Level FlightAware Approximate
Sat 10:31:00 AM 49.3561 -33.7577 254° West  Level FlightAware Approximate
Sat 10:32:00 AM 49.3215 -33.9439 254° West  Level FlightAware Approximate
Sat 10:33:00 AM 49.2866 -34.1298 254° West  Level FlightAware Approximate
Sat 10:34:00 AM 49.2514 -34.3154 254° West  Level FlightAware Approximate
Sat 10:35:00 AM 49.2159 -34.5008 254° West  Level FlightAware Approximate
Sat 10:36:00 AM 49.1801 -34.6859 254° West  Level FlightAware Approximate
Sat 10:37:00 AM 49.1440 -34.8708 253° West  Level FlightAware Approximate
Sat 10:38:00 AM 49.1076 -35.0553 253° West  Level FlightAware Approximate
Sat 10:39:00 AM 49.0710 -35.2396 253° West  Level FlightAware Approximate
Sat 10:40:00 AM 49.0340 -35.4236 253° West  Level FlightAware Approximate
Sat 10:41:00 AM 48.9967 -35.6074 253° West  Level FlightAware Approximate
Sat 10:42:00 AM 48.9592 -35.7909 253° West  Level FlightAware Approximate
Sat 10:43:00 AM 48.9213 -35.9741 253° West  Level FlightAware Approximate
Sat 10:44:00 AM 48.8832 -36.1570 252° West  Level FlightAware Approximate
Sat 10:45:00 AM 48.8448 -36.3396 252° West  Level FlightAware Approximate
Sat 10:46:00 AM 48.8061 -36.5220 252° West  Level FlightAware Approximate
Sat 10:47:00 AM 48.7671 -36.7041 252° West  Level FlightAware Approximate
Sat 10:48:00 AM 48.7278 -36.8858 252° West  Level FlightAware Approximate
Sat 10:49:00 AM 48.6882 -37.0674 252° West  Level FlightAware Approximate
Sat 10:50:00 AM 48.6484 -37.2486 252° West  Level FlightAware Approximate
Sat 10:51:00 AM 48.6083 -37.4295 252° West  Level FlightAware Approximate
Sat 10:52:00 AM 48.5678 -37.6102 251° West  Level FlightAware Approximate
Sat 10:53:00 AM 48.5271 -37.7905 251° West  Level FlightAware Approximate
Sat 10:54:00 AM 48.4862 -37.9706 251° West  Level FlightAware Approximate
Sat 10:55:00 AM 48.4449 -38.1504 251° West  Level FlightAware Approximate
Sat 10:56:00 AM 48.4034 -38.3298 251° West  Level FlightAware Approximate
Sat 10:57:00 AM 48.3615 -38.5090 251° West  Level FlightAware Approximate
Sat 10:58:00 AM 48.3194 -38.6879 251° West  Level FlightAware Approximate
Sat 10:59:00 AM 48.2771 -38.8665 250° West  Level FlightAware Approximate
Sat 11:00:00 AM 48.2344 -39.0448 250° West  Level FlightAware Approximate
Sat 11:01:00 AM 48.1915 -39.2228 250° West  Level FlightAware Approximate
Sat 11:02:00 AM 48.1482 -39.4008 250° West  Level FlightAware Approximate
Sat 11:03:00 AM 48.1047 -39.5786 250° West  Level FlightAware Approximate
Sat 11:04:00 AM 48.0608 -39.7560 250° West  Level FlightAware Approximate
Sat 11:05:00 AM 48.0168 -39.9331 250° West  Level FlightAware Approximate
Sat 11:06:00 AM 47.9821 -40.1142 257° West  Level FlightAware Approximate
Sat 11:07:00 AM 47.9530 -40.2979 257° West  Level FlightAware Approximate
Sat 11:08:00 AM 47.9236 -40.4814 257° West  Level FlightAware Approximate
Sat 11:09:00 AM 47.8940 -40.6646 256° West  Level FlightAware Approximate
Sat 11:10:00 AM 47.8640 -40.8476 256° West  Level FlightAware Approximate
Sat 11:11:00 AM 47.8338 -41.0305 256° West  Level FlightAware Approximate
Sat 11:12:00 AM 47.8032 -41.2131 256° West  Level FlightAware Approximate
Sat 11:13:00 AM 47.7724 -41.3955 256° West  Level FlightAware Approximate
Sat 11:14:00 AM 47.7413 -41.5776 256° West  Level FlightAware Approximate
Sat 11:15:00 AM 47.7099 -41.7596 256° West  Level FlightAware Approximate
Sat 11:16:00 AM 47.6782 -41.9413 256° West  Level FlightAware Approximate
Sat 11:17:00 AM 47.6462 -42.1229 255° West  Level FlightAware Approximate
Sat 11:18:00 AM 47.6140 -42.3042 255° West  Level FlightAware Approximate
Sat 11:19:00 AM 47.5814 -42.4852 255° West  Level FlightAware Approximate
Sat 11:20:00 AM 47.5501 -42.6667 256° West  Level FlightAware Approximate
Sat 11:21:00 AM 47.5198 -42.8484 256° West  Level FlightAware Approximate
Sat 11:22:00 AM 47.4893 -43.0299 256° West  Level FlightAware Approximate
Sat 11:23:00 AM 47.4584 -43.2112 256° West  Level FlightAware Approximate
Sat 11:24:00 AM 47.4272 -43.3922 256° West  Level FlightAware Approximate
Sat 11:25:00 AM 47.3958 -43.5731 256° West  Level FlightAware Approximate
Sat 11:26:00 AM 47.3641 -43.7537 256° West  Level FlightAware Approximate
Sat 11:27:00 AM 47.3311 -43.9338 255° West  Level FlightAware Approximate
Sat 11:28:00 AM 47.2971 -44.1133 254° West  Level FlightAware Approximate
Sat 11:29:00 AM 47.2627 -44.2925 254° West  Level FlightAware Approximate
Sat 11:30:00 AM 47.2281 -44.4715 254° West  Level FlightAware Approximate
Sat 11:31:00 AM 47.1933 -44.6503 254° West  Level FlightAware Approximate
Sat 11:32:00 AM 47.1581 -44.8289 254° West  Level FlightAware Approximate
Sat 11:33:00 AM 47.1227 -45.0072 254° West  Level FlightAware Approximate
Sat 11:34:00 AM 47.0870 -45.1853 254° West  Level FlightAware Approximate
Sat 11:35:00 AM 47.0510 -45.3632 254° West  Level FlightAware Approximate
Sat 11:36:00 AM 47.0147 -45.5407 253° West  Level FlightAware Approximate
Sat 11:37:00 AM 46.9782 -45.7181 253° West  Level FlightAware Approximate
Sat 11:38:00 AM 46.9414 -45.8952 253° West  Level FlightAware Approximate
Sat 11:39:00 AM 46.9043 -46.0721 253° West  Level FlightAware Approximate
Sat 11:40:00 AM 46.8670 -46.2487 253° West  Level FlightAware Approximate
Sat 11:41:00 AM 46.8294 -46.4251 253° West  Level FlightAware Approximate
Sat 11:42:00 AM 46.7915 -46.6012 253° West  Level FlightAware Approximate
Sat 11:43:00 AM 46.7533 -46.7771 252° West  Level FlightAware Approximate
Sat 11:44:00 AM 46.7149 -46.9528 252° West  Level FlightAware Approximate
Sat 11:45:00 AM 46.6762 -47.1282 252° West  Level FlightAware Approximate
Sat 11:46:00 AM 46.6372 -47.3033 252° West  Level FlightAware Approximate
Sat 11:47:00 AM 46.5980 -47.4782 252° West  Level FlightAware Approximate
Sat 11:48:00 AM 46.5585 -47.6528 252° West  Level FlightAware Approximate
Sat 11:49:00 AM 46.5187 -47.8272 252° West  Level FlightAware Approximate
Sat 11:50:00 AM 46.4787 -48.0013 252° West  Level FlightAware Approximate
Sat 11:50:14 AM 46.0000 -49.9667 251° West 500 575 32,000  Level Gander Center
Sat 11:51:00 AM 46.4384 -48.1752 251° West  Level FlightAware Approximate
Sat 11:51:14 AM 45.9667 -50.1500 255° West 500 575 32,000  Level Gander Center
Sat 11:52:00 AM 46.3978 -48.3488 251° West  Level FlightAware Approximate
Sat 11:52:14 AM 45.9833 -50.3667 276° West 490 564 33,700  Level Gander Center
Sat 11:53:00 AM 46.3570 -48.5221 251° West  Level FlightAware Approximate
Sat 11:54:00 AM 46.3159 -48.6952 251° West  Level FlightAware Approximate
Sat 11:55:00 AM 46.2742 -48.8696 251° West  Level FlightAware Approximate
Sat 11:57:57 AM 46.1340 -51.4980 276° West 483 556 36,000  Level FlightAware ADS-B
Sat 11:58:42 AM 46.1510 -51.6410 280° West 483 556 36,000  Level FlightAware ADS-B
Sat 11:59:22 AM 46.1640 -51.7560 279° West 483 556 36,000  Level FlightAware ADS-B
Sat 12:00:02 PM 46.1760 -51.8640 279° West 483 556 36,000  Level FlightAware ADS-B
Sat 12:00:47 PM 46.1970 -52.0400 280° West 484 557 36,000  Level FlightAware ADS-B
Sat 12:01:42 PM 46.2160 -52.2090 279° West 483 556 36,000  Level FlightAware ADS-B
Sat 12:02:22 PM 46.2280 -52.3180 279° West 483 556 36,000  Level FlightAware ADS-B
Sat 12:03:07 PM 46.2460 -52.4790 279° West 483 556 36,000  Level FlightAware ADS-B
Sat 12:03:47 PM 46.2620 -52.6180 280° West 482 555 36,000  Level FlightAware ADS-B
Sat 12:04:32 PM 46.2760 -52.7510 279° West 482 555 36,000  Level FlightAware ADS-B
Sat 12:05:12 PM 46.2880 -52.8640 279° West 482 555 36,000  Level FlightAware ADS-B
Sat 12:05:57 PM 46.3060 -53.0310 279° West 482 555 36,000  Level FlightAware ADS-B
Sat 12:06:37 PM 46.3190 -53.1570 279° West 483 556 36,000  Level FlightAware ADS-B
Sat 12:07:17 PM 46.3320 -53.2860 278° West 483 556 36,000  Level FlightAware ADS-B
Sat 12:08:02 PM 46.3450 -53.4320 277° West 484 557 36,000  Level FlightAware ADS-B
Sat 12:08:42 PM 46.3570 -53.5600 278° West 484 557 36,000  Level FlightAware ADS-B
Sat 12:09:27 PM 46.3700 -53.7000 278° West 484 557 36,000  Level FlightAware ADS-B
Sat 12:10:07 PM 46.3820 -53.8280 278° West 484 557 36,000  Level FlightAware ADS-B
Sat 12:10:47 PM 46.3950 -53.9580 278° West 484 557 36,000  Level FlightAware ADS-B
Sat 12:11:32 PM 46.4080 -54.1010 278° West 485 558 36,000  Level FlightAware ADS-B
Sat 12:12:12 PM 46.4190 -54.2190 278° West 485 558 36,000  Level FlightAware ADS-B
Sat 12:12:57 PM 46.4340 -54.3750 278° West 484 557 36,000  Level FlightAware ADS-B
Sat 12:13:32 PM 46.4430 -54.4820 277° West 484 557 36,000  Level FlightAware ADS-B
Sat 12:14:12 PM 46.4520 -54.5910 277° West 484 557 36,000  Level FlightAware ADS-B
Sat 12:14:52 PM 46.4660 -54.7220 279° West 36,000  Level FlightAware ADS-B
Sat 12:15:42 PM 46.4820 -54.9050 277° West 481 554 36,000  Level FlightAware ADS-B
Sat 12:16:27 PM 46.4950 -55.0450 278° West 480 552 36,000  Level FlightAware ADS-B
Sat 12:17:07 PM 46.5060 -55.1750 277° West 480 552 36,000  Level FlightAware ADS-B
Sat 12:17:47 PM 46.5160 -55.3010 277° West 480 552 36,000  Level FlightAware ADS-B
Sat 12:18:32 PM 46.5270 -55.4320 277° West 480 552 36,000  Level FlightAware ADS-B
Sat 12:19:12 PM 46.5380 -55.5620 277° West 480 552 36,000  Level FlightAware ADS-B
Sat 12:19:52 PM 46.5490 -55.6910 277° West 480 552 36,000  Level FlightAware ADS-B
Sat 12:20:37 PM 46.5600 -55.8330 276° West 480 552 36,000  Level FlightAware ADS-B
Sat 12:21:17 PM 46.5690 -55.9520 276° West 479 551 36,000  Level FlightAware ADS-B
Sat 12:21:57 PM 46.5800 -56.0860 277° West 479 551 36,000  Level FlightAware ADS-B
Sat 12:22:42 PM 46.5920 -56.2390 277° West 477 549 36,000  Level FlightAware ADS-B
Sat 12:23:27 PM 46.6010 -56.3630 276° West 477 549 36,000  Level FlightAware ADS-B
Sat 12:24:07 PM 46.6110 -56.4960 276° West 476 548 36,000  Level FlightAware ADS-B
Sat 12:24:47 PM 46.6200 -56.6220 276° West 476 548 36,000  Level FlightAware ADS-B
Sat 12:25:47 PM 46.6350 -56.8160 276° West 476 548 36,000  Level FlightAware ADS-B
Sat 12:26:27 PM 46.6440 -56.9500 276° West 477 549 36,000  Level FlightAware ADS-B
Sat 12:27:02 PM 46.6520 -57.0610 276° West 477 549 36,000  Level FlightAware ADS-B
Sat 12:27:52 PM 46.6620 -57.2120 276° West 478 550 36,000  Level FlightAware ADS-B
Sat 12:28:27 PM 46.6690 -57.3200 275° West 479 551 36,000  Level FlightAware ADS-B
Sat 12:29:12 PM 46.6770 -57.4540 275° West 479 551 36,000  Level FlightAware ADS-B
Sat 12:29:52 PM 46.6840 -57.5630 275° West 479 551 36,000  Level FlightAware ADS-B
Sat 12:30:32 PM 46.6910 -57.6730 275° West 479 551 36,000  Level FlightAware ADS-B
Sat 12:31:22 PM 46.6990 -57.8100 275° West 479 551 36,000  Level FlightAware ADS-B
Sat 12:32:02 PM 46.7050 -57.9190 275° West 479 551 36,000  Level FlightAware ADS-B
Sat 12:32:47 PM 46.7230 -58.1700 276° West 482 555 36,000  Level FlightAware ADS-B
Sat 12:33:22 PM 46.7280 -58.2730 274° West 482 555 36,000  Level FlightAware ADS-B
Sat 12:34:07 PM 46.7380 -58.4340 275° West 481 554 36,000  Level FlightAware ADS-B
Sat 12:34:52 PM 46.7460 -58.5830 275° West 482 555 36,000  Level FlightAware ADS-B
Sat 12:35:32 PM 46.7530 -58.7130 275° West 483 556 36,000  Level FlightAware ADS-B
Sat 12:36:17 PM 46.7600 -58.8530 274° West 483 556 36,000  Level FlightAware ADS-B
Sat 12:36:57 PM 46.7670 -58.9840 275° West 483 556 36,000  Level FlightAware ADS-B
Sat 12:37:42 PM 46.7750 -59.1350 274° West 483 556 36,000  Level FlightAware ADS-B
Sat 12:38:22 PM 46.7810 -59.2640 274° West 483 556 36,000  Level FlightAware ADS-B
Sat 12:39:07 PM 46.7880 -59.4080 274° West 483 556 36,000  Level FlightAware ADS-B
Sat 12:39:47 PM 46.7940 -59.5360 274° West 483 556 36,000  Level FlightAware ADS-B
Sat 12:40:27 PM 46.8000 -59.6680 274° West 482 555 36,000  Level FlightAware ADS-B
Sat 12:41:12 PM 46.8060 -59.8110 274° West 482 555 36,000  Level FlightAware ADS-B
Sat 12:41:52 PM 46.8120 -59.9430 274° West 481 554 36,000  Level FlightAware ADS-B
Sat 12:42:37 PM 46.8180 -60.0920 273° West 481 554 36,000  Level FlightAware ADS-B
Sat 12:43:17 PM 46.8230 -60.2200 273° West 481 554 36,000  Level FlightAware ADS-B
Sat 12:43:57 PM 46.8280 -60.3490 273° West 481 554 36,000  Level FlightAware ADS-B
Sat 12:44:42 PM 46.8330 -60.4920 273° West 482 555 36,000  Level FlightAware ADS-B
Sat 12:45:22 PM 46.8380 -60.6190 273° West 483 556 36,000  Level FlightAware ADS-B
Sat 12:46:07 PM 46.8440 -60.7720 273° West 484 557 36,000  Level FlightAware ADS-B
Sat 12:46:47 PM 46.8480 -60.9020 273° West 485 558 36,000  Level FlightAware ADS-B
Sat 12:47:27 PM 46.8520 -61.0330 273° West 487 560 36,000  Level FlightAware ADS-B
Sat 12:48:22 PM 46.8560 -61.2030 272° West 488 562 36,000  Level FlightAware ADS-B
Sat 12:49:02 PM 46.8590 -61.3150 272° West 488 562 36,000  Level FlightAware ADS-B
Sat 12:49:42 PM 46.8620 -61.4270 272° West 488 562 36,000  Level FlightAware ADS-B
Sat 12:50:32 PM 46.8650 -61.5670 272° West 488 562 36,000  Level FlightAware ADS-B
Sat 12:51:12 PM 46.8680 -61.6800 272° West 488 562 36,000  Level FlightAware ADS-B
Sat 12:51:52 PM 46.8700 -61.7920 272° West 488 562 36,000  Level FlightAware ADS-B
Sat 12:52:32 PM 46.8730 -61.9040 272° West 488 562 36,000  Level FlightAware ADS-B
Sat 12:53:17 PM 46.8820 -62.1810 273° West 485 558 36,000  Level FlightAware ADS-B
Sat 12:54:02 PM 46.8840 -62.3200 271° West 484 557 36,000  Level FlightAware ADS-B
Sat 12:54:42 PM 46.8860 -62.4320 272° West 484 557 36,000  Level FlightAware ADS-B
Sat 12:55:22 PM 46.8870 -62.5430 271° West 484 557 36,000  Level FlightAware ADS-B
Sat 12:56:02 PM 46.8880 -62.6550 271° West 484 557 36,000  Level FlightAware ADS-B
Sat 12:56:42 PM 46.8900 -62.7660 272° West 484 557 36,000  Level FlightAware ADS-B
Sat 12:57:32 PM 46.8910 -62.9050 271° West 484 557 36,000  Level FlightAware ADS-B
Sat 12:58:12 PM 46.8920 -63.0170 271° West 484 557 36,000  Level FlightAware ADS-B
Sat 12:58:52 PM 46.8940 -63.1280 272° West 484 557 36,000  Level FlightAware ADS-B
Sat 12:59:32 PM 46.8950 -63.2390 271° West 484 557 36,000  Level FlightAware ADS-B
Sat 01:00:12 PM 46.8960 -63.3510 271° West 484 557 36,000  Level FlightAware ADS-B
Sat 01:00:52 PM 46.8980 -63.4620 272° West 484 557 36,000  Level FlightAware ADS-B
Sat 01:01:42 PM 46.8990 -63.6010 271° West 484 557 36,000  Level FlightAware ADS-B
Sat 01:02:22 PM 46.9010 -63.7130 272° West 484 557 36,000  Level FlightAware ADS-B
Sat 01:03:02 PM 46.9020 -63.8240 271° West 484 557 36,000  Level FlightAware ADS-B
Sat 01:03:32 PM 46.9072 -64.1489 271° West 490 564 36,000  Level Boston Center
Sat 01:04:05 PM 46.8833 -64.2667 254° West 480 552 36,000  Level Moncton Center
Sat 01:05:05 PM 46.8833 -64.4667 270° West 480 552 36,000  Level Moncton Center
Sat 01:06:05 PM 46.8833 -64.6667 270° West 480 552 36,000  Level Moncton Center
Sat 01:07:05 PM 46.8833 -64.8333 270° West 480 552 36,000  Level Moncton Center
Sat 01:08:05 PM 46.8833 -65.0500 270° West 480 552 36,000  Level Moncton Center
Sat 01:09:05 PM 46.8833 -65.2333 270° West 480 552 36,000  Level Moncton Center
Sat 01:10:05 PM 46.8667 -65.4500 264° West 480 552 36,000  Level Moncton Center
Sat 01:11:05 PM 46.8667 -65.6500 270° West 490 564 36,000  Level Moncton Center
Sat 01:12:05 PM 46.8833 -65.8500 277° West 480 552 36,000  Level Moncton Center
Sat 01:13:05 PM 46.8833 -66.0333 270° West 480 552 36,000  Level Moncton Center
Sat 01:14:05 PM 46.8833 -66.2333 270° West 480 552 36,000  Level Moncton Center
Sat 01:15:05 PM 46.8833 -66.4333 270° West 480 552 36,000  Level Moncton Center
Sat 01:16:05 PM 46.8667 -66.6333 263° West 490 564 36,000  Level Moncton Center
Sat 01:22:17 PM 46.8840 -67.8770 263° West 488 562 36,000  Level FlightAware ADS-B
Sat 01:23:12 PM 46.8850 -68.0560 271° West 487 560 36,000  Level FlightAware ADS-B
Sat 01:23:47 PM 46.8850 -68.1670 270° West 486 559 36,000  Level FlightAware ADS-B
Sat 01:24:37 PM 46.8860 -68.3390 271° West 485 558 36,000  Level FlightAware ADS-B
Sat 01:25:12 PM 46.8860 -68.4560 270° West 484 557 36,000  Level FlightAware ADS-B
Sat 01:26:12 PM 46.8860 -68.6430 270° West 482 555 36,000  Level FlightAware ADS-B
Sat 01:26:52 PM 46.8860 -68.7720 270° West 481 554 36,000  Level FlightAware ADS-B
Sat 01:27:32 PM 46.8831 -68.8683 270° West 491 565 36,000  Level Boston Center
Sat 01:28:32 PM 46.8825 -69.0686 270° West 491 565 36,000  Level Boston Center
Sat 01:29:32 PM 46.8800 -69.2783 269° West 484 557 36,000  Level Boston Center
Sat 01:30:32 PM 46.8811 -69.4756 271° West 484 557 36,000  Level Boston Center
Sat 01:31:01 PM 46.8833 -69.5333 273° West 480 552 36,000  Level Montreal Center
Sat 01:32:01 PM 46.8667 -69.7333 263° West 480 552 36,000  Level Montreal Center
Sat 01:33:01 PM 46.8667 -69.9333 270° West 480 552 36,000  Level Montreal Center
Sat 01:34:01 PM 46.8500 -70.1333 263° West 480 552 36,000  Level Montreal Center
Sat 01:35:01 PM 46.8167 -70.3167 255° West 490 564 36,000  Level Montreal Center
Sat 01:36:01 PM 46.8000 -70.5167 263° West 490 564 36,000  Level Montreal Center
Sat 01:37:01 PM 46.7667 -70.7000 255° West 480 552 36,000  Level Montreal Center
Sat 01:38:01 PM 46.7500 -70.9167 264° West 480 552 36,000  Level Montreal Center
Sat 01:39:01 PM 46.7167 -71.1000 255° West 480 552 36,000  Level Montreal Center
Sat 01:40:01 PM 46.7000 -71.3000 263° West 480 552 36,000  Level Montreal Center
Sat 01:41:01 PM 46.6667 -71.4833 255° West 480 552 36,000  Level Montreal Center
Sat 01:42:01 PM 46.6500 -71.6833 263° West 480 552 36,000  Level Montreal Center
Sat 01:43:01 PM 46.6167 -71.8667 255° West 480 552 36,000  Level Montreal Center
Sat 01:44:01 PM 46.6000 -72.0667 263° West 480 552 36,000  Level Montreal Center
Sat 01:45:01 PM 46.5833 -72.2500 263° West 480 552 36,000  Level Montreal Center
Sat 01:46:01 PM 46.5500 -72.4500 256° West 470 541 36,000  Level Montreal Center
Sat 01:47:01 PM 46.5333 -72.6333 263° West 470 541 36,000  Level Montreal Center
Sat 01:48:01 PM 46.5000 -72.8167 255° West 470 541 36,000  Level Montreal Center
Sat 01:53:32 PM 46.3710 -73.8560 255° West 462 532 36,000  Level FlightAware ADS-B
Sat 01:54:12 PM 46.3530 -73.9760 258° West 462 532 36,000  Level FlightAware ADS-B
Sat 01:54:57 PM 46.3320 -74.1160 258° West 461 531 36,000  Level FlightAware ADS-B
Sat 01:55:37 PM 46.3140 -74.2330 257° West 461 531 36,000  Level FlightAware ADS-B
Sat 01:56:17 PM 46.2950 -74.3550 257° West 461 531 36,000  Level FlightAware ADS-B
Sat 01:56:52 PM 46.2810 -74.4470 258° West 461 531 36,000  Level FlightAware ADS-B
Sat 01:57:57 PM 46.2490 -74.6480 257° West 462 532 36,000  Level FlightAware ADS-B
Sat 01:58:37 PM 46.2320 -74.7580 257° West 461 531 36,000  Level FlightAware ADS-B
Sat 01:59:12 PM 46.2140 -74.8660 256° West 461 531 36,000  Level FlightAware ADS-B
Sat 02:00:02 PM 46.1910 -75.0110 257° West 462 532 36,000  Level FlightAware ADS-B
Sat 02:00:37 PM 46.1730 -75.1230 257° West 462 532 36,000  Level FlightAware ADS-B
Sat 02:01:27 PM 46.1490 -75.2670 257° West 462 532 36,000  Level FlightAware ADS-B
Sat 02:02:07 PM 46.1290 -75.3920 257° West 462 532 36,000  Level FlightAware ADS-B
Sat 02:02:47 PM 46.1080 -75.5160 256° West 462 532 36,000  Level FlightAware ADS-B
Sat 02:03:32 PM 46.0850 -75.6530 256° West 463 533 36,000  Level FlightAware ADS-B
Sat 02:04:07 PM 46.0680 -75.7540 256° West 464 534 36,000  Level FlightAware ADS-B
Sat 02:04:57 PM 46.0420 -75.9070 256° West 464 534 36,000  Level FlightAware ADS-B
Sat 02:05:37 PM 46.0220 -76.0270 257° West 463 533 36,000  Level FlightAware ADS-B
Sat 02:06:22 PM 45.9980 -76.1650 256° West 461 531 36,000  Level FlightAware ADS-B
Sat 02:07:02 PM 45.9780 -76.2810 256° West 461 531 36,000  Level FlightAware ADS-B
Sat 02:07:42 PM 45.9580 -76.3940 256° West 461 531 36,000  Level FlightAware ADS-B
Sat 02:08:27 PM 45.9340 -76.5310 256° West 460 529 36,000  Level FlightAware ADS-B
Sat 02:09:02 PM 45.9170 -76.6260 256° West 459 528 36,000  Level FlightAware ADS-B
Sat 02:09:52 PM 45.8900 -76.7730 255° West 458 527 36,000  Level FlightAware ADS-B
Sat 02:10:32 PM 45.8700 -76.8830 255° West 458 527 36,000  Level FlightAware ADS-B
Sat 02:11:12 PM 45.8490 -77.0030 256° West 458 527 36,000  Level FlightAware ADS-B
Sat 02:11:57 PM 45.8240 -77.1370 255° West 460 529 36,000  Level FlightAware ADS-B
Sat 02:12:37 PM 45.8020 -77.2570 255° West 461 531 36,000  Level FlightAware ADS-B
Sat 02:13:17 PM 45.7800 -77.3770 255° West 461 531 36,000  Level FlightAware ADS-B
Sat 02:14:02 PM 45.7550 -77.5090 255° West 462 532 36,000  Level FlightAware ADS-B
Sat 02:14:42 PM 45.7320 -77.6270 254° West 463 533 36,000  Level FlightAware ADS-B
Sat 02:15:27 PM 45.7080 -77.7590 255° West 465 535 36,000  Level FlightAware ADS-B
Sat 02:16:07 PM 45.6850 -77.8790 255° West 465 535 36,000  Level FlightAware ADS-B
Sat 02:16:52 PM 45.6590 -78.0120 254° West 465 535 36,000  Level FlightAware ADS-B
Sat 02:17:32 PM 45.6370 -78.1260 255° West 467 537 36,000  Level FlightAware ADS-B
Sat 02:18:12 PM 45.6130 -78.2510 255° West 466 536 36,000  Level FlightAware ADS-B
Sat 02:18:57 PM 45.5870 -78.3830 254° West 466 536 36,000  Level FlightAware ADS-B
Sat 02:19:37 PM 45.5630 -78.5010 254° West 465 535 36,000  Level FlightAware ADS-B
Sat 02:20:22 PM 45.5380 -78.6300 255° West 465 535 36,000  Level FlightAware ADS-B
Sat 02:21:02 PM 45.5150 -78.7440 254° West 463 533 36,000  Level FlightAware ADS-B
Sat 02:21:42 PM 45.4910 -78.8610 254° West 463 533 36,000  Level FlightAware ADS-B
Sat 02:22:27 PM 45.4640 -78.9920 254° West 462 532 36,000  Level FlightAware ADS-B
Sat 02:23:07 PM 45.4390 -79.1160 254° West 462 532 36,000  Level FlightAware ADS-B
Sat 02:23:47 PM 45.4150 -79.2320 254° West 462 532 36,000  Level FlightAware ADS-B
Sat 02:24:32 PM 45.3890 -79.3580 254° West 463 533 36,000  Level FlightAware ADS-B
Sat 02:25:12 PM 45.3640 -79.4800 254° West 463 533 36,000  Level FlightAware ADS-B
Sat 02:25:57 PM 45.3360 -79.6120 253° West 465 535 36,000  Level FlightAware ADS-B
Sat 02:26:37 PM 45.3120 -79.7280 254° West 464 534 36,000  Level FlightAware ADS-B
Sat 02:27:17 PM 45.2880 -79.8420 253° West 465 535 36,000  Level FlightAware ADS-B
Sat 02:28:02 PM 45.2610 -79.9710 253° West 465 535 36,000  Level FlightAware ADS-B
Sat 02:28:42 PM 45.2340 -80.0930 253° West 466 536 36,000  Level FlightAware ADS-B
Sat 02:29:22 PM 45.2090 -80.2100 253° West 466 536 36,000  Level FlightAware ADS-B
Sat 02:30:07 PM 45.1810 -80.3380 253° West 467 537 36,000  Level FlightAware ADS-B
Sat 02:30:47 PM 45.1550 -80.4580 253° West 466 536 36,000  Level FlightAware ADS-B
Sat 02:31:32 PM 45.1280 -80.5800 253° West 466 536 36,000  Level FlightAware ADS-B
Sat 02:32:12 PM 45.1010 -80.7020 253° West 466 536 36,000  Level FlightAware ADS-B
Sat 02:32:57 PM 45.0720 -80.8320 253° West 467 537 36,000  Level FlightAware ADS-B
Sat 02:33:37 PM 45.0460 -80.9500 253° West 467 537 36,000  Level FlightAware ADS-B
Sat 02:34:17 PM 45.0200 -81.0680 253° West 466 536 36,000  Level FlightAware ADS-B
Sat 02:35:02 PM 44.9900 -81.1990 252° West 466 536 36,000  Level FlightAware ADS-B
Sat 02:35:42 PM 44.9640 -81.3130 252° West 465 535 36,000  Level FlightAware ADS-B
Sat 02:36:22 PM 44.9390 -81.4240 252° West 465 535 36,000  Level FlightAware ADS-B
Sat 02:37:32 PM 44.8910 -81.6340 252° West 463 533 36,000  Level FlightAware ADS-B
Sat 02:38:42 PM 44.8490 -81.8130 252° West 463 533 36,000  Level FlightAware ADS-B
Sat 02:39:22 PM 44.8210 -81.9360 252° West 464 534 36,000  Level FlightAware ADS-B
Sat 02:40:22 PM 44.7800 -82.1100 252° West 465 535 36,000  Level FlightAware ADS-B
Sat 02:41:07 PM 44.7460 -82.2530 252° West 466 536 36,000  Level FlightAware ADS-B
Sat 02:41:42 PM 44.7220 -82.3550 252° West 467 537 36,000  Level FlightAware ADS-B
Sat 02:42:27 PM 44.6910 -82.4830 251° West 467 537 36,000  Level FlightAware ADS-B
Sat 02:43:12 PM 44.6590 -82.6160 251° West 467 537 36,000  Level FlightAware ADS-B
Sat 02:43:52 PM 44.6310 -82.7290 251° West 466 536 36,000  Level FlightAware ADS-B
Sat 02:44:37 PM 44.5920 -82.8520 246° West 466 536 36,000  Level FlightAware ADS-B
Sat 02:45:17 PM 44.5540 -82.9610 244° Southwest 465 535 36,000  Level FlightAware ADS-B
Sat 02:46:02 PM 44.5110 -83.0830 244° Southwest 466 536 36,000  Level FlightAware ADS-B
Sat 02:46:42 PM 44.4730 -83.1860 243° Southwest 466 536 36,000  Level FlightAware ADS-B
Sat 02:47:22 PM 44.4320 -83.2980 243° Southwest 466 536 36,000  Level FlightAware ADS-B
Sat 02:48:02 PM 44.3940 -83.4040 243° Southwest 466 536 36,000  Level FlightAware ADS-B
Sat 02:48:47 PM 44.3510 -83.5240 243° Southwest 466 536 36,000  Level FlightAware ADS-B
Sat 02:49:27 PM 44.3130 -83.6280 243° Southwest 466 536 36,000  Level FlightAware ADS-B
Sat 02:50:12 PM 44.2680 -83.7530 243° Southwest 466 536 36,000  Level FlightAware ADS-B
Sat 02:50:52 PM 44.2300 -83.8560 243° Southwest 465 535 36,000  Level FlightAware ADS-B
Sat 02:51:32 PM 44.1890 -83.9680 243° Southwest 466 536 36,000  Level FlightAware ADS-B
Sat 02:52:22 PM 44.1400 -84.0990 243° Southwest 466 536 36,000  Level FlightAware ADS-B
Sat 02:53:02 PM 44.1010 -84.2050 243° Southwest 465 535 36,000  Level FlightAware ADS-B
Sat 02:53:42 PM 44.0610 -84.3120 243° Southwest 465 535 36,000  Level FlightAware ADS-B
Sat 02:54:22 PM 44.0210 -84.4190 243° Southwest 465 535 36,000  Level FlightAware ADS-B
Sat 02:55:02 PM 43.9820 -84.5230 243° Southwest 465 535 36,000  Level FlightAware ADS-B
Sat 02:55:52 PM 43.9320 -84.6560 242° Southwest 467 537 36,000 -467 Level FlightAware ADS-B
Sat 02:56:32 PM 43.8920 -84.7610 242° Southwest 467 537 35,300 -1,050 Descending FlightAware ADS-B
Sat 02:57:12 PM 43.8540 -84.8610 242° Southwest 453 521 34,600 -1,059 Descending FlightAware ADS-B
Sat 02:57:57 PM 43.8090 -84.9780 242° Southwest 446 513 33,800 -1,125 Descending FlightAware ADS-B
Sat 02:58:32 PM 43.7740 -85.0690 242° Southwest 441 507 33,100 -1,125 Descending FlightAware ADS-B
Sat 02:59:17 PM 43.7330 -85.1760 242° Southwest 433 498 32,300 -1,100 Descending FlightAware ADS-B
Sat 02:59:32 PM 43.7120 -85.2100 229° Southwest 423 487 32,000 -327 Descending FlightAware ADS-B
Sat 03:00:12 PM 43.6530 -85.2810 221° Southwest 421 484 32,000 -71 Level FlightAware ADS-B
Sat 03:00:57 PM 43.5980 -85.3700 230° Southwest 423 487 31,900 -494 Descending FlightAware ADS-B
Sat 03:01:37 PM 43.5470 -85.4520 229° Southwest 432 497 31,300 -847 Descending FlightAware ADS-B
Sat 03:02:22 PM 43.4890 -85.5460 230° Southwest 433 498 30,700 -847 Descending FlightAware ADS-B
Sat 03:03:02 PM 43.4340 -85.6340 229° Southwest 459 528 30,100 -900 Descending FlightAware ADS-B
Sat 03:03:42 PM 43.3790 -85.7210 229° Southwest 454 522 29,500 -918 Descending FlightAware ADS-B
Sat 03:04:27 PM 43.3200 -85.8150 229° Southwest 446 513 28,800 -988 Descending FlightAware ADS-B
Sat 03:05:07 PM 43.2670 -85.8990 229° Southwest 448 516 28,100 -1,200 Descending FlightAware ADS-B
Sat 03:05:52 PM 43.2090 -85.9900 229° Southwest 443 510 27,100 -1,482 Descending FlightAware ADS-B
Sat 03:06:32 PM 43.1510 -86.0810 229° Southwest 426 490 26,000 -1,553 Descending FlightAware ADS-B
Sat 03:07:17 PM 43.0960 -86.1670 229° Southwest 418 481 24,900 -1,482 Descending FlightAware ADS-B
Sat 03:07:57 PM 43.0420 -86.2510 229° Southwest 413 475 23,900 -1,500 Descending FlightAware ADS-B
Sat 03:08:37 PM 42.9930 -86.3280 229° Southwest 406 467 22,900 -1,500 Descending FlightAware ADS-B
Sat 03:09:37 PM 42.9200 -86.4420 229° Southwest 405 466 21,400 -1,680 Descending FlightAware ADS-B
Sat 03:10:17 PM 42.8730 -86.5260 233° Southwest 410 472 20,100 -1,875 Descending FlightAware ADS-B
Sat 03:10:57 PM 42.8290 -86.6070 233° Southwest 397 457 18,900 -1,976 Descending FlightAware ADS-B
Sat 03:11:42 PM 42.7790 -86.6960 233° Southwest 387 445 17,300 -2,188 Descending FlightAware ADS-B
Sat 03:12:22 PM 42.7370 -86.7710 233° Southwest 378 435 15,800 -2,325 Descending FlightAware ADS-B
Sat 03:13:02 PM 42.6940 -86.8470 232° Southwest 372 428 14,200 -2,329 Descending FlightAware ADS-B
Sat 03:13:47 PM 42.6500 -86.9240 232° Southwest 370 426 12,500 -2,259 Descending FlightAware ADS-B
Sat 03:14:27 PM 42.6060 -87.0010 232° Southwest 360 414 11,000 -1,765 Descending FlightAware ADS-B
Sat 03:15:12 PM 42.5600 -87.0820 232° Southwest 355 409 10,000 -1,000 Descending FlightAware ADS-B
Sat 03:15:27 PM 42.5450 -87.1070 231° Southwest 348 400 10,000  Level FlightAware ADS-B
Sat 03:15:52 PM 42.5200 -87.1500 232° Southwest 353 406 10,000  Level FlightAware ADS-B
Sat 03:16:22 PM 42.4920 -87.2000 233° Southwest 376 433 10,000  Level FlightAware ADS-B
Sat 03:16:52 PM 42.4570 -87.2620 233° Southwest 377 434 10,000 -109 Level FlightAware ADS-B
Sat 03:17:17 PM 42.4320 -87.3070 233° Southwest 379 436 9,900  Descending FlightAware ADS-B
Sat 03:17:42 PM 42.4110 -87.3620 243° Southwest 383 441 10,000  Climbing FlightAware ADS-B
Sat 03:18:02 PM 42.3990 -87.4060 250° West 381 438 9,900  Descending FlightAware ADS-B
Sat 03:18:27 PM 42.3820 -87.4650 249° West 384 442 10,000  Climbing FlightAware ADS-B
Sat 03:18:42 PM 42.3740 -87.4940 250° West 383 441 9,900  Descending FlightAware ADS-B
Sat 03:19:07 PM 42.3510 -87.5450 239° Southwest 375 432 10,000 109 Climbing FlightAware ADS-B
Sat 03:19:37 PM 42.3110 -87.5920 221° Southwest 373 429 10,000 -109 Level FlightAware ADS-B
Sat 03:20:02 PM 42.2780 -87.6270 218° Southwest 373 429 9,900  Descending FlightAware ADS-B
Sat 03:20:32 PM 42.2380 -87.6690 218° Southwest 366 421 10,000 100 Climbing FlightAware ADS-B
Sat 03:21:02 PM 42.1970 -87.7110 217° Southwest 363 418 10,000  Level FlightAware ADS-B
Sat 03:22:02 PM 42.1350 -87.8010 227° Southwest 308 354 10,000 -212 Level FlightAware ADS-B
Sat 03:22:27 PM 42.1250 -87.8460 253° West 297 342 9,700 -960 Descending FlightAware ADS-B
Sat 03:22:52 PM 42.1150 -87.8890 253° West 294 338 9,200 -1,309 Descending FlightAware ADS-B
Sat 03:23:22 PM 42.1030 -87.9420 253° West 291 335 8,500 -1,400 Descending FlightAware ADS-B
Sat 03:23:52 PM 42.0930 -87.9910 255° West 288 331 7,800 -1,900 Descending FlightAware ADS-B
Sat 03:24:22 PM 42.0880 -88.0450 263° West 284 327 6,600 -2,509 Descending FlightAware ADS-B
Sat 03:24:47 PM 42.0830 -88.0910 262° West 279 321 5,500 -2,400 Descending FlightAware ADS-B
Sat 03:25:17 PM 42.0760 -88.1350 258° West 272 313 4,400 -1,950 Descending FlightAware ADS-B
Sat 03:25:27 PM 42.0700 -88.1460 234° Southwest 258 297 4,200 -960 Descending FlightAware ADS-B
Sat 03:25:42 PM 42.0520 -88.1580 206° Southwest 222 255 4,000 -686 Descending FlightAware ADS-B
Sat 03:26:02 PM 42.0320 -88.1600 184° South 205 236 3,800 -1,200 Descending FlightAware ADS-B
Sat 03:26:27 PM 42.0140 -88.1470 152° Southeast 190 219 3,100 -1,500 Descending FlightAware ADS-B
Sat 03:26:42 PM 42.0070 -88.1300 119° Southeast 182 209 2,800 -900 Descending FlightAware ADS-B
Sat 03:27:07 PM 41.9970 -88.1060 119° Southeast 171 197 2,500 -327 Descending FlightAware ADS-B
Sat 03:27:37 PM 41.9910 -88.0750 105° East 169 194 2,500 -109 Level FlightAware ADS-B
Sat 03:28:02 PM 41.9920 -88.0500 87° East 168 193 2,400 -655 Descending FlightAware ADS-B
Sat 03:28:32 PM 41.9920 -88.0200 90° East 146 168 1,900 -873 Descending FlightAware ADS-B
Sat 03:28:57 PM 41.9920 -87.9990 90° East 131 151 1,600 -655 Descending FlightAware ADS-B
Sat 03:29:27 PM 41.9920 -87.9730 90° East 137 158 1,300 -667 Descending FlightAware ADS-B
Sat 03:29:42 PM 41.9920 -87.9620 90° East 131 151 1,100 -667 Descending FlightAware ADS-B
Sat 03:30:12 PM 41.9930 -87.9370 87° East 132 152 800 -600 Descending FlightAware ADS-B

Login

Don't have an account? Register now (free) for customized features, flight alerts, and more!